sensor_id;sensor_type;location;lat;lon;timestamp;P1;durP1;ratioP1;P2;durP2;ratioP2
11127;SDS011;5618;51.028;5.234;2022-09-13T00:02:13;2.60;;;2.40;;
11127;SDS011;5618;51.028;5.234;2022-09-13T00:04:38;4.07;;;2.00;;
11127;SDS011;5618;51.028;5.234;2022-09-13T00:07:05;1.90;;;1.75;;
11127;SDS011;5618;51.028;5.234;2022-09-13T00:09:30;3.35;;;2.22;;
11127;SDS011;5618;51.028;5.234;2022-09-13T00:11:56;4.15;;;2.28;;
11127;SDS011;5618;51.028;5.234;2022-09-13T00:14:22;4.35;;;2.03;;
11127;SDS011;5618;51.028;5.234;2022-09-13T00:16:50;3.38;;;2.05;;
11127;SDS011;5618;51.028;5.234;2022-09-13T00:19:16;2.30;;;2.10;;
11127;SDS011;5618;51.028;5.234;2022-09-13T00:21:42;1.92;;;1.80;;
11127;SDS011;5618;51.028;5.234;2022-09-13T00:24:07;4.35;;;2.42;;
11127;SDS011;5618;51.028;5.234;2022-09-13T00:26:33;2.15;;;1.83;;
11127;SDS011;5618;51.028;5.234;2022-09-13T00:28:59;2.22;;;2.03;;
11127;SDS011;5618;51.028;5.234;2022-09-13T00:31:26;2.72;;;2.25;;
11127;SDS011;5618;51.028;5.234;2022-09-13T00:33:52;2.00;;;1.83;;
11127;SDS011;5618;51.028;5.234;2022-09-13T00:36:18;2.25;;;2.15;;
11127;SDS011;5618;51.028;5.234;2022-09-13T00:38:44;1.95;;;1.75;;
11127;SDS011;5618;51.028;5.234;2022-09-13T00:41:12;3.25;;;2.17;;
11127;SDS011;5618;51.028;5.234;2022-09-13T00:43:40;1.65;;;1.55;;
11127;SDS011;5618;51.028;5.234;2022-09-13T00:46:06;2.00;;;1.80;;
11127;SDS011;5618;51.028;5.234;2022-09-13T00:48:32;2.15;;;1.98;;
11127;SDS011;5618;51.028;5.234;2022-09-13T00:50:59;2.63;;;1.80;;
11127;SDS011;5618;51.028;5.234;2022-09-13T00:53:31;1.90;;;1.80;;
11127;SDS011;5618;51.028;5.234;2022-09-13T00:58:29;2.25;;;1.77;;
11127;SDS011;5618;51.028;5.234;2022-09-13T01:00:55;2.22;;;1.70;;
11127;SDS011;5618;51.028;5.234;2022-09-13T01:03:28;3.33;;;1.90;;
11127;SDS011;5618;51.028;5.234;2022-09-13T01:05:59;1.70;;;1.60;;
11127;SDS011;5618;51.028;5.234;2022-09-13T01:08:34;4.10;;;2.15;;
11127;SDS011;5618;51.028;5.234;2022-09-13T01:11:02;1.83;;;1.73;;
11127;SDS011;5618;51.028;5.234;2022-09-13T01:13:36;2.00;;;1.80;;
11127;SDS011;5618;51.028;5.234;2022-09-13T01:16:03;2.45;;;1.83;;
11127;SDS011;5618;51.028;5.234;2022-09-13T01:18:29;2.25;;;1.73;;
11127;SDS011;5618;51.028;5.234;2022-09-13T01:21:05;2.22;;;1.80;;
11127;SDS011;5618;51.028;5.234;2022-09-13T01:41:05;4.10;;;2.08;;
11127;SDS011;5618;51.028;5.234;2022-09-13T01:49:18;2.88;;;2.10;;
11127;SDS011;5618;51.028;5.234;2022-09-13T01:54:42;5.25;;;2.10;;
11127;SDS011;5618;51.028;5.234;2022-09-13T01:57:34;2.20;;;1.95;;
11127;SDS011;5618;51.028;5.234;2022-09-13T02:00:21;2.10;;;1.92;;
11127;SDS011;5618;51.028;5.234;2022-09-13T02:05:39;1.90;;;1.75;;
11127;SDS011;5618;51.028;5.234;2022-09-13T02:08:23;2.65;;;1.83;;
11127;SDS011;5618;51.028;5.234;2022-09-13T02:11:12;2.10;;;1.90;;
11127;SDS011;5618;51.028;5.234;2022-09-13T02:13:42;2.10;;;1.90;;
11127;SDS011;5618;51.028;5.234;2022-09-13T02:16:15;2.03;;;1.58;;
11127;SDS011;5618;51.028;5.234;2022-09-13T02:18:46;3.53;;;2.45;;
11127;SDS011;5618;51.028;5.234;2022-09-13T02:21:20;2.47;;;2.05;;
11127;SDS011;5618;51.028;5.234;2022-09-13T02:24:02;1.70;;;1.60;;
11127;SDS011;5618;51.028;5.234;2022-09-13T02:26:32;2.47;;;1.73;;
11127;SDS011;5618;51.028;5.234;2022-09-13T02:29:00;4.88;;;2.08;;
11127;SDS011;5618;51.028;5.234;2022-09-13T02:31:35;5.50;;;1.95;;
11127;SDS011;5618;51.028;5.234;2022-09-13T02:34:11;2.58;;;1.67;;
11127;SDS011;5618;51.028;5.234;2022-09-13T02:36:43;1.98;;;1.88;;
11127;SDS011;5618;51.028;5.234;2022-09-13T02:39:12;2.72;;;1.77;;
11127;SDS011;5618;51.028;5.234;2022-09-13T02:42:00;2.50;;;1.40;;
11127;SDS011;5618;51.028;5.234;2022-09-13T02:50:06;5.78;;;1.75;;
11127;SDS011;5618;51.028;5.234;2022-09-13T02:53:00;2.20;;;1.98;;
11127;SDS011;5618;51.028;5.234;2022-09-13T03:01:08;3.75;;;1.83;;
11127;SDS011;5618;51.028;5.234;2022-09-13T03:03:33;2.13;;;1.83;;
11127;SDS011;5618;51.028;5.234;2022-09-13T03:05:59;2.45;;;1.83;;
11127;SDS011;5618;51.028;5.234;2022-09-13T03:08:25;1.58;;;1.45;;
11127;SDS011;5618;51.028;5.234;2022-09-13T03:16:36;2.00;;;1.75;;
11127;SDS011;5618;51.028;5.234;2022-09-13T03:19:14;2.92;;;1.40;;
11127;SDS011;5618;51.028;5.234;2022-09-13T03:30:07;1.83;;;1.60;;
11127;SDS011;5618;51.028;5.234;2022-09-13T03:36:32;2.45;;;1.63;;
11127;SDS011;5618;51.028;5.234;2022-09-13T03:41:09;3.10;;;1.80;;
11127;SDS011;5618;51.028;5.234;2022-09-13T03:43:52;1.88;;;1.75;;
11127;SDS011;5618;51.028;5.234;2022-09-13T03:46:29;2.80;;;1.52;;
11127;SDS011;5618;51.028;5.234;2022-09-13T03:49:03;4.88;;;2.08;;
11127;SDS011;5618;51.028;5.234;2022-09-13T03:51:34;2.42;;;1.90;;
11127;SDS011;5618;51.028;5.234;2022-09-13T03:54:01;2.58;;;2.03;;
11127;SDS011;5618;51.028;5.234;2022-09-13T03:56:29;2.42;;;1.67;;
11127;SDS011;5618;51.028;5.234;2022-09-13T03:58:55;4.25;;;2.28;;
11127;SDS011;5618;51.028;5.234;2022-09-13T04:01:22;6.53;;;2.30;;
11127;SDS011;5618;51.028;5.234;2022-09-13T04:03:49;3.05;;;2.00;;
11127;SDS011;5618;51.028;5.234;2022-09-13T04:06:14;2.03;;;1.73;;
11127;SDS011;5618;51.028;5.234;2022-09-13T04:08:40;2.70;;;2.33;;
11127;SDS011;5618;51.028;5.234;2022-09-13T04:11:06;6.93;;;1.70;;
11127;SDS011;5618;51.028;5.234;2022-09-13T04:13:33;3.67;;;1.92;;
11127;SDS011;5618;51.028;5.234;2022-09-13T04:16:00;3.83;;;1.88;;
11127;SDS011;5618;51.028;5.234;2022-09-13T04:18:27;2.05;;;1.95;;
11127;SDS011;5618;51.028;5.234;2022-09-13T04:20:54;2.78;;;2.00;;
11127;SDS011;5618;51.028;5.234;2022-09-13T04:23:21;2.25;;;1.58;;
11127;SDS011;5618;51.028;5.234;2022-09-13T04:25:47;1.90;;;1.63;;
11127;SDS011;5618;51.028;5.234;2022-09-13T04:28:15;3.90;;;1.95;;
11127;SDS011;5618;51.028;5.234;2022-09-13T04:30:44;3.05;;;1.90;;
11127;SDS011;5618;51.028;5.234;2022-09-13T04:33:11;5.13;;;2.03;;
11127;SDS011;5618;51.028;5.234;2022-09-13T04:35:37;3.63;;;1.92;;
11127;SDS011;5618;51.028;5.234;2022-09-13T04:38:04;6.03;;;1.85;;
11127;SDS011;5618;51.028;5.234;2022-09-13T04:40:30;2.90;;;1.60;;
11127;SDS011;5618;51.028;5.234;2022-09-13T04:42:56;3.35;;;1.90;;
11127;SDS011;5618;51.028;5.234;2022-09-13T04:45:21;3.30;;;1.90;;
11127;SDS011;5618;51.028;5.234;2022-09-13T04:47:51;4.13;;;1.75;;
11127;SDS011;5618;51.028;5.234;2022-09-13T04:50:18;2.55;;;1.98;;
11127;SDS011;5618;51.028;5.234;2022-09-13T04:52:45;2.95;;;1.80;;
11127;SDS011;5618;51.028;5.234;2022-09-13T04:55:11;4.63;;;1.80;;
11127;SDS011;5618;51.028;5.234;2022-09-13T04:57:37;3.08;;;1.92;;
11127;SDS011;5618;51.028;5.234;2022-09-13T05:00:03;2.08;;;1.80;;
11127;SDS011;5618;51.028;5.234;2022-09-13T05:02:29;3.00;;;1.70;;
11127;SDS011;5618;51.028;5.234;2022-09-13T05:04:55;1.88;;;1.45;;
11127;SDS011;5618;51.028;5.234;2022-09-13T05:07:21;2.53;;;1.55;;
11127;SDS011;5618;51.028;5.234;2022-09-13T05:09:46;1.63;;;1.52;;
11127;SDS011;5618;51.028;5.234;2022-09-13T05:12:12;2.78;;;1.73;;
11127;SDS011;5618;51.028;5.234;2022-09-13T05:14:38;3.22;;;2.17;;
11127;SDS011;5618;51.028;5.234;2022-09-13T05:17:04;2.05;;;1.80;;
11127;SDS011;5618;51.028;5.234;2022-09-13T05:19:30;5.55;;;1.77;;
11127;SDS011;5618;51.028;5.234;2022-09-13T05:21:55;2.78;;;1.75;;
11127;SDS011;5618;51.028;5.234;2022-09-13T05:24:21;2.25;;;2.03;;
11127;SDS011;5618;51.028;5.234;2022-09-13T05:26:46;6.20;;;1.95;;
11127;SDS011;5618;51.028;5.234;2022-09-13T05:29:12;2.60;;;1.73;;
11127;SDS011;5618;51.028;5.234;2022-09-13T05:31:39;3.38;;;2.00;;
11127;SDS011;5618;51.028;5.234;2022-09-13T05:34:07;2.55;;;1.95;;
11127;SDS011;5618;51.028;5.234;2022-09-13T05:36:35;2.95;;;1.60;;
11127;SDS011;5618;51.028;5.234;2022-09-13T05:39:01;2.42;;;1.67;;
11127;SDS011;5618;51.028;5.234;2022-09-13T05:41:27;3.85;;;1.83;;
11127;SDS011;5618;51.028;5.234;2022-09-13T05:43:53;3.10;;;1.42;;
11127;SDS011;5618;51.028;5.234;2022-09-13T05:46:19;1.92;;;1.67;;
11127;SDS011;5618;51.028;5.234;2022-09-13T05:48:45;1.80;;;1.70;;
11127;SDS011;5618;51.028;5.234;2022-09-13T05:51:13;5.57;;;1.60;;
11127;SDS011;5618;51.028;5.234;2022-09-13T05:53:40;2.92;;;1.70;;
11127;SDS011;5618;51.028;5.234;2022-09-13T05:56:08;1.67;;;1.58;;
11127;SDS011;5618;51.028;5.234;2022-09-13T05:58:42;1.83;;;1.73;;
11127;SDS011;5618;51.028;5.234;2022-09-13T06:01:09;2.15;;;1.73;;
11127;SDS011;5618;51.028;5.234;2022-09-13T06:03:36;2.67;;;1.55;;
11127;SDS011;5618;51.028;5.234;2022-09-13T06:06:02;1.80;;;1.65;;
11127;SDS011;5618;51.028;5.234;2022-09-13T06:08:29;1.80;;;1.58;;
11127;SDS011;5618;51.028;5.234;2022-09-13T06:10:59;2.67;;;1.95;;
11127;SDS011;5618;51.028;5.234;2022-09-13T06:13:27;2.75;;;1.88;;
11127;SDS011;5618;51.028;5.234;2022-09-13T06:15:54;2.58;;;2.25;;
11127;SDS011;5618;51.028;5.234;2022-09-13T06:18:22;2.10;;;1.90;;
11127;SDS011;5618;51.028;5.234;2022-09-13T06:20:48;6.35;;;2.20;;
11127;SDS011;5618;51.028;5.234;2022-09-13T06:23:14;7.50;;;2.47;;
11127;SDS011;5618;51.028;5.234;2022-09-13T06:25:40;7.05;;;2.20;;
11127;SDS011;5618;51.028;5.234;2022-09-13T06:28:06;3.28;;;2.00;;
11127;SDS011;5618;51.028;5.234;2022-09-13T06:30:33;5.13;;;2.70;;
11127;SDS011;5618;51.028;5.234;2022-09-13T06:32:59;3.63;;;2.08;;
11127;SDS011;5618;51.028;5.234;2022-09-13T06:35:25;2.35;;;2.15;;
11127;SDS011;5618;51.028;5.234;2022-09-13T06:37:53;1.95;;;1.75;;
11127;SDS011;5618;51.028;5.234;2022-09-13T06:40:21;4.15;;;2.08;;
11127;SDS011;5618;51.028;5.234;2022-09-13T06:42:47;1.70;;;1.60;;
11127;SDS011;5618;51.028;5.234;2022-09-13T06:45:12;3.40;;;2.08;;
11127;SDS011;5618;51.028;5.234;2022-09-13T06:47:38;2.60;;;2.00;;
11127;SDS011;5618;51.028;5.234;2022-09-13T06:50:04;2.70;;;2.08;;
11127;SDS011;5618;51.028;5.234;2022-09-13T06:52:31;5.07;;;2.20;;
11127;SDS011;5618;51.028;5.234;2022-09-13T06:54:57;2.03;;;1.70;;
11127;SDS011;5618;51.028;5.234;2022-09-13T06:57:23;2.17;;;1.88;;
11127;SDS011;5618;51.028;5.234;2022-09-13T06:59:48;3.20;;;1.70;;
11127;SDS011;5618;51.028;5.234;2022-09-13T07:02:14;2.17;;;1.98;;
11127;SDS011;5618;51.028;5.234;2022-09-13T07:04:40;2.90;;;2.10;;
11127;SDS011;5618;51.028;5.234;2022-09-13T07:07:06;4.57;;;2.92;;
11127;SDS011;5618;51.028;5.234;2022-09-13T07:09:31;4.45;;;2.08;;
11127;SDS011;5618;51.028;5.234;2022-09-13T07:11:58;3.83;;;2.33;;
11127;SDS011;5618;51.028;5.234;2022-09-13T07:14:25;3.42;;;1.90;;
11127;SDS011;5618;51.028;5.234;2022-09-13T07:16:53;2.55;;;1.90;;
11127;SDS011;5618;51.028;5.234;2022-09-13T07:19:19;2.35;;;2.15;;
11127;SDS011;5618;51.028;5.234;2022-09-13T07:21:47;2.10;;;1.90;;
11127;SDS011;5618;51.028;5.234;2022-09-13T07:24:14;3.30;;;1.92;;
11127;SDS011;5618;51.028;5.234;2022-09-13T07:26:41;2.08;;;1.98;;
11127;SDS011;5618;51.028;5.234;2022-09-13T07:29:07;1.65;;;1.55;;
11127;SDS011;5618;51.028;5.234;2022-09-13T07:31:37;2.90;;;1.58;;
11127;SDS011;5618;51.028;5.234;2022-09-13T07:34:06;2.20;;;2.00;;
11127;SDS011;5618;51.028;5.234;2022-09-13T07:36:34;6.82;;;2.10;;
11127;SDS011;5618;51.028;5.234;2022-09-13T07:39:00;2.25;;;2.05;;
11127;SDS011;5618;51.028;5.234;2022-09-13T07:41:28;2.30;;;2.10;;
11127;SDS011;5618;51.028;5.234;2022-09-13T07:43:54;2.42;;;2.13;;
11127;SDS011;5618;51.028;5.234;2022-09-13T07:46:21;3.97;;;2.15;;
11127;SDS011;5618;51.028;5.234;2022-09-13T07:48:51;2.97;;;2.03;;
11127;SDS011;5618;51.028;5.234;2022-09-13T07:51:19;4.57;;;2.20;;
11127;SDS011;5618;51.028;5.234;2022-09-13T07:53:46;2.72;;;2.20;;
11127;SDS011;5618;51.028;5.234;2022-09-13T07:56:15;3.63;;;2.15;;
11127;SDS011;5618;51.028;5.234;2022-09-13T07:58:42;2.00;;;1.90;;
11127;SDS011;5618;51.028;5.234;2022-09-13T08:03:40;3.75;;;1.83;;
11127;SDS011;5618;51.028;5.234;2022-09-13T08:06:06;3.53;;;1.95;;
11127;SDS011;5618;51.028;5.234;2022-09-13T08:08:33;2.13;;;1.80;;
11127;SDS011;5618;51.028;5.234;2022-09-13T08:11:00;2.60;;;1.95;;
11127;SDS011;5618;51.028;5.234;2022-09-13T08:13:28;2.55;;;2.15;;
11127;SDS011;5618;51.028;5.234;2022-09-13T08:15:54;1.70;;;1.60;;
11127;SDS011;5618;51.028;5.234;2022-09-13T08:18:20;2.25;;;2.03;;
11127;SDS011;5618;51.028;5.234;2022-09-13T08:20:45;4.75;;;1.80;;
11127;SDS011;5618;51.028;5.234;2022-09-13T08:23:12;3.63;;;2.05;;
11127;SDS011;5618;51.028;5.234;2022-09-13T08:25:38;6.00;;;2.08;;
11127;SDS011;5618;51.028;5.234;2022-09-13T08:28:08;3.00;;;2.15;;
11127;SDS011;5618;51.028;5.234;2022-09-13T08:30:38;2.05;;;1.88;;
11127;SDS011;5618;51.028;5.234;2022-09-13T08:33:06;2.97;;;2.08;;
11127;SDS011;5618;51.028;5.234;2022-09-13T08:35:32;4.07;;;1.90;;
11127;SDS011;5618;51.028;5.234;2022-09-13T08:37:58;3.53;;;1.95;;
11127;SDS011;5618;51.028;5.234;2022-09-13T08:40:24;2.47;;;2.10;;
11127;SDS011;5618;51.028;5.234;2022-09-13T08:42:57;2.67;;;1.90;;
11127;SDS011;5618;51.028;5.234;2022-09-13T08:45:33;5.07;;;2.50;;
11127;SDS011;5618;51.028;5.234;2022-09-13T08:48:03;3.28;;;2.17;;
11127;SDS011;5618;51.028;5.234;2022-09-13T08:50:37;2.60;;;2.10;;
11127;SDS011;5618;51.028;5.234;2022-09-13T09:04:23;2.38;;;2.13;;
11127;SDS011;5618;51.028;5.234;2022-09-13T09:07:39;3.42;;;2.75;;
11127;SDS011;5618;51.028;5.234;2022-09-13T09:09:57;4.80;;;2.40;;
11127;SDS011;5618;51.028;5.234;2022-09-13T09:12:29;2.63;;;2.35;;
11127;SDS011;5618;51.028;5.234;2022-09-13T09:15:17;3.15;;;2.53;;
11127;SDS011;5618;51.028;5.234;2022-09-13T09:25:41;3.80;;;2.42;;
11127;SDS011;5618;51.028;5.234;2022-09-13T09:28:11;4.13;;;3.20;;
11127;SDS011;5618;51.028;5.234;2022-09-13T09:30:40;4.72;;;3.55;;
11127;SDS011;5618;51.028;5.234;2022-09-13T09:33:20;4.15;;;3.10;;
11127;SDS011;5618;51.028;5.234;2022-09-13T09:36:10;4.95;;;2.78;;
11127;SDS011;5618;51.028;5.234;2022-09-13T09:38:48;6.75;;;2.60;;
11127;SDS011;5618;51.028;5.234;2022-09-13T09:41:19;2.72;;;2.53;;
11127;SDS011;5618;51.028;5.234;2022-09-13T09:46:44;3.92;;;2.47;;
11127;SDS011;5618;51.028;5.234;2022-09-13T09:52:02;6.05;;;2.50;;
11127;SDS011;5618;51.028;5.234;2022-09-13T09:54:31;7.95;;;3.20;;
11127;SDS011;5618;51.028;5.234;2022-09-13T09:56:59;5.95;;;2.50;;
11127;SDS011;5618;51.028;5.234;2022-09-13T09:59:26;4.32;;;2.67;;
11127;SDS011;5618;51.028;5.234;2022-09-13T10:01:56;2.92;;;2.25;;
11127;SDS011;5618;51.028;5.234;2022-09-13T10:04:24;7.60;;;3.08;;
11127;SDS011;5618;51.028;5.234;2022-09-13T10:06:51;7.95;;;2.78;;
11127;SDS011;5618;51.028;5.234;2022-09-13T10:09:54;5.65;;;2.90;;
11127;SDS011;5618;51.028;5.234;2022-09-13T10:12:46;4.10;;;2.42;;
11127;SDS011;5618;51.028;5.234;2022-09-13T10:15:19;2.83;;;2.55;;
11127;SDS011;5618;51.028;5.234;2022-09-13T10:20:40;4.97;;;2.70;;
11127;SDS011;5618;51.028;5.234;2022-09-13T10:25:38;8.43;;;3.03;;
11127;SDS011;5618;51.028;5.234;2022-09-13T10:28:09;5.60;;;2.63;;
11127;SDS011;5618;51.028;5.234;2022-09-13T10:31:21;4.53;;;3.00;;
11127;SDS011;5618;51.028;5.234;2022-09-13T10:36:01;3.30;;;2.15;;
11127;SDS011;5618;51.028;5.234;2022-09-13T10:38:37;2.35;;;1.90;;
11127;SDS011;5618;51.028;5.234;2022-09-13T10:41:25;3.05;;;2.25;;
11127;SDS011;5618;51.028;5.234;2022-09-13T10:44:03;5.45;;;2.20;;
11127;SDS011;5618;51.028;5.234;2022-09-13T10:46:32;3.67;;;2.17;;
11127;SDS011;5618;51.028;5.234;2022-09-13T10:49:00;3.10;;;1.90;;
11127;SDS011;5618;51.028;5.234;2022-09-13T10:54:06;3.40;;;2.28;;
11127;SDS011;5618;51.028;5.234;2022-09-13T10:56:32;2.47;;;1.92;;
11127;SDS011;5618;51.028;5.234;2022-09-13T11:01:51;3.00;;;1.70;;
11127;SDS011;5618;51.028;5.234;2022-09-13T11:10:34;2.30;;;1.88;;
11127;SDS011;5618;51.028;5.234;2022-09-13T11:15:42;1.40;;;1.30;;
11127;SDS011;5618;51.028;5.234;2022-09-13T11:18:31;5.63;;;1.85;;
11127;SDS011;5618;51.028;5.234;2022-09-13T11:27:00;2.25;;;1.92;;
11127;SDS011;5618;51.028;5.234;2022-09-13T11:40:46;4.00;;;2.03;;
11127;SDS011;5618;51.028;5.234;2022-09-13T11:43:27;2.17;;;1.88;;
11127;SDS011;5618;51.028;5.234;2022-09-13T11:52:28;2.55;;;1.90;;
11127;SDS011;5618;51.028;5.234;2022-09-13T11:57:23;3.70;;;1.90;;
11127;SDS011;5618;51.028;5.234;2022-09-13T11:59:56;4.03;;;2.70;;
11127;SDS011;5618;51.028;5.234;2022-09-13T12:05:31;5.03;;;1.95;;
11127;SDS011;5618;51.028;5.234;2022-09-13T12:08:05;5.05;;;2.20;;
11127;SDS011;5618;51.028;5.234;2022-09-13T12:10:49;2.55;;;1.83;;
11127;SDS011;5618;51.028;5.234;2022-09-13T12:13:23;2.35;;;2.15;;
11127;SDS011;5618;51.028;5.234;2022-09-13T12:15:56;4.15;;;2.33;;
11127;SDS011;5618;51.028;5.234;2022-09-13T12:18:35;5.65;;;1.80;;
11127;SDS011;5618;51.028;5.234;2022-09-13T12:21:14;2.58;;;1.88;;
11127;SDS011;5618;51.028;5.234;2022-09-13T12:23:52;3.75;;;2.00;;
11127;SDS011;5618;51.028;5.234;2022-09-13T12:26:43;2.88;;;2.22;;
11127;SDS011;5618;51.028;5.234;2022-09-13T12:31:45;1.98;;;1.70;;
11127;SDS011;5618;51.028;5.234;2022-09-13T12:34:15;2.67;;;2.35;;
11127;SDS011;5618;51.028;5.234;2022-09-13T13:01:59;2.17;;;1.73;;
11127;SDS011;5618;51.028;5.234;2022-09-13T13:04:29;1.92;;;1.65;;
11127;SDS011;5618;51.028;5.234;2022-09-13T13:06:58;3.05;;;2.10;;
11127;SDS011;5618;51.028;5.234;2022-09-13T13:09:30;2.80;;;1.75;;
11127;SDS011;5618;51.028;5.234;2022-09-13T13:12:09;2.30;;;2.10;;
11127;SDS011;5618;51.028;5.234;2022-09-13T13:23:29;2.97;;;1.75;;
11127;SDS011;5618;51.028;5.234;2022-09-13T13:42:02;4.07;;;1.55;;
11127;SDS011;5618;51.028;5.234;2022-09-13T13:59:55;2.15;;;1.80;;
11127;SDS011;5618;51.028;5.234;2022-09-13T14:02:24;2.97;;;1.73;;
11127;SDS011;5618;51.028;5.234;2022-09-13T14:05:05;5.35;;;1.90;;
11127;SDS011;5618;51.028;5.234;2022-09-13T14:15:54;2.30;;;1.67;;
11127;SDS011;5618;51.028;5.234;2022-09-13T14:18:36;3.25;;;1.63;;
11127;SDS011;5618;51.028;5.234;2022-09-13T14:23:49;7.63;;;2.15;;
11127;SDS011;5618;51.028;5.234;2022-09-13T14:26:15;3.22;;;1.77;;
11127;SDS011;5618;51.028;5.234;2022-09-13T14:28:41;3.90;;;2.00;;
11127;SDS011;5618;51.028;5.234;2022-09-13T14:31:13;4.47;;;1.85;;
11127;SDS011;5618;51.028;5.234;2022-09-13T14:33:42;4.25;;;1.90;;
11127;SDS011;5618;51.028;5.234;2022-09-13T14:36:20;4.57;;;2.20;;
11127;SDS011;5618;51.028;5.234;2022-09-13T14:38:51;2.13;;;1.88;;
11127;SDS011;5618;51.028;5.234;2022-09-13T14:41:21;3.80;;;1.95;;
11127;SDS011;5618;51.028;5.234;2022-09-13T14:44:03;4.50;;;1.90;;
11127;SDS011;5618;51.028;5.234;2022-09-13T14:46:40;2.33;;;2.10;;
11127;SDS011;5618;51.028;5.234;2022-09-13T14:49:12;3.95;;;2.40;;
11127;SDS011;5618;51.028;5.234;2022-09-13T14:51:45;2.70;;;2.50;;
11127;SDS011;5618;51.028;5.234;2022-09-13T14:54:20;2.40;;;2.20;;
11127;SDS011;5618;51.028;5.234;2022-09-13T14:57:03;2.90;;;2.30;;
11127;SDS011;5618;51.028;5.234;2022-09-13T14:59:33;3.83;;;2.42;;
11127;SDS011;5618;51.028;5.234;2022-09-13T15:02:16;3.25;;;2.30;;
11127;SDS011;5618;51.028;5.234;2022-09-13T15:04:43;6.75;;;2.50;;
11127;SDS011;5618;51.028;5.234;2022-09-13T15:07:22;2.90;;;2.20;;
11127;SDS011;5618;51.028;5.234;2022-09-13T15:12:36;3.63;;;2.60;;
11127;SDS011;5618;51.028;5.234;2022-09-13T15:15:31;6.40;;;2.42;;
11127;SDS011;5618;51.028;5.234;2022-09-13T15:18:05;2.70;;;2.50;;
11127;SDS011;5618;51.028;5.234;2022-09-13T15:23:28;2.72;;;2.33;;
11127;SDS011;5618;51.028;5.234;2022-09-13T15:28:52;2.63;;;2.42;;
11127;SDS011;5618;51.028;5.234;2022-09-13T15:31:24;2.70;;;2.25;;
11127;SDS011;5618;51.028;5.234;2022-09-13T15:34:09;3.50;;;2.70;;
11127;SDS011;5618;51.028;5.234;2022-09-13T15:36:36;3.97;;;2.80;;
11127;SDS011;5618;51.028;5.234;2022-09-13T15:41:34;2.67;;;2.47;;
11127;SDS011;5618;51.028;5.234;2022-09-13T15:44:02;2.55;;;2.35;;
11127;SDS011;5618;51.028;5.234;2022-09-13T15:46:29;3.30;;;3.00;;
11127;SDS011;5618;51.028;5.234;2022-09-13T15:48:57;3.03;;;2.58;;
11127;SDS011;5618;51.028;5.234;2022-09-13T15:51:25;4.80;;;2.67;;
11127;SDS011;5618;51.028;5.234;2022-09-13T15:53:51;3.17;;;2.70;;
11127;SDS011;5618;51.028;5.234;2022-09-13T15:56:19;5.65;;;2.72;;
11127;SDS011;5618;51.028;5.234;2022-09-13T15:58:47;2.80;;;2.60;;
11127;SDS011;5618;51.028;5.234;2022-09-13T16:01:13;5.32;;;3.10;;
11127;SDS011;5618;51.028;5.234;2022-09-13T16:03:40;3.05;;;2.38;;
11127;SDS011;5618;51.028;5.234;2022-09-13T16:06:06;5.78;;;3.25;;
11127;SDS011;5618;51.028;5.234;2022-09-13T16:08:36;3.42;;;2.50;;
11127;SDS011;5618;51.028;5.234;2022-09-13T16:11:03;4.35;;;3.28;;
11127;SDS011;5618;51.028;5.234;2022-09-13T16:13:29;3.78;;;3.25;;
11127;SDS011;5618;51.028;5.234;2022-09-13T16:15:55;3.88;;;2.83;;
11127;SDS011;5618;51.028;5.234;2022-09-13T16:18:21;4.18;;;3.65;;
11127;SDS011;5618;51.028;5.234;2022-09-13T16:20:47;5.82;;;4.85;;
11127;SDS011;5618;51.028;5.234;2022-09-13T16:23:13;4.88;;;2.92;;
11127;SDS011;5618;51.028;5.234;2022-09-13T16:25:39;3.58;;;2.65;;
11127;SDS011;5618;51.028;5.234;2022-09-13T16:28:05;2.75;;;2.55;;
11127;SDS011;5618;51.028;5.234;2022-09-13T16:30:31;3.42;;;3.13;;
11127;SDS011;5618;51.028;5.234;2022-09-13T16:32:58;3.33;;;2.55;;
11127;SDS011;5618;51.028;5.234;2022-09-13T16:35:28;6.03;;;2.78;;
11127;SDS011;5618;51.028;5.234;2022-09-13T16:37:55;3.75;;;2.75;;
11127;SDS011;5618;51.028;5.234;2022-09-13T16:40:21;4.68;;;3.15;;
11127;SDS011;5618;51.028;5.234;2022-09-13T16:42:48;3.63;;;3.30;;
11127;SDS011;5618;51.028;5.234;2022-09-13T16:45:14;4.18;;;2.88;;
11127;SDS011;5618;51.028;5.234;2022-09-13T16:47:39;4.82;;;3.10;;
11127;SDS011;5618;51.028;5.234;2022-09-13T16:50:06;3.88;;;2.75;;
11127;SDS011;5618;51.028;5.234;2022-09-13T16:52:32;3.85;;;2.80;;
11127;SDS011;5618;51.028;5.234;2022-09-13T16:54:59;4.03;;;2.58;;
11127;SDS011;5618;51.028;5.234;2022-09-13T16:57:25;3.20;;;2.97;;
11127;SDS011;5618;51.028;5.234;2022-09-13T16:59:52;5.55;;;3.13;;
11127;SDS011;5618;51.028;5.234;2022-09-13T17:02:20;3.65;;;3.15;;
11127;SDS011;5618;51.028;5.234;2022-09-13T17:04:46;2.90;;;2.70;;
11127;SDS011;5618;51.028;5.234;2022-09-13T17:07:12;3.72;;;2.80;;
11127;SDS011;5618;51.028;5.234;2022-09-13T17:09:39;2.67;;;2.47;;
11127;SDS011;5618;51.028;5.234;2022-09-13T17:12:09;3.75;;;3.45;;
11127;SDS011;5618;51.028;5.234;2022-09-13T17:14:36;3.22;;;2.70;;
11127;SDS011;5618;51.028;5.234;2022-09-13T17:17:03;2.95;;;2.53;;
11127;SDS011;5618;51.028;5.234;2022-09-13T17:19:30;3.47;;;2.80;;
11127;SDS011;5618;51.028;5.234;2022-09-13T17:22:00;4.45;;;3.35;;
11127;SDS011;5618;51.028;5.234;2022-09-13T17:24:28;6.35;;;2.92;;
11127;SDS011;5618;51.028;5.234;2022-09-13T17:26:57;4.13;;;2.65;;
11127;SDS011;5618;51.028;5.234;2022-09-13T17:29:23;3.03;;;2.72;;
11127;SDS011;5618;51.028;5.234;2022-09-13T17:31:50;5.28;;;3.10;;
11127;SDS011;5618;51.028;5.234;2022-09-13T17:34:16;3.13;;;2.35;;
11127;SDS011;5618;51.028;5.234;2022-09-13T17:36:43;4.07;;;3.08;;
11127;SDS011;5618;51.028;5.234;2022-09-13T17:39:09;2.75;;;2.53;;
11127;SDS011;5618;51.028;5.234;2022-09-13T17:41:35;4.95;;;3.00;;
11127;SDS011;5618;51.028;5.234;2022-09-13T17:44:00;4.80;;;2.83;;
11127;SDS011;5618;51.028;5.234;2022-09-13T17:46:27;5.25;;;2.70;;
11127;SDS011;5618;51.028;5.234;2022-09-13T17:48:54;3.20;;;2.92;;
11127;SDS011;5618;51.028;5.234;2022-09-13T17:51:22;4.13;;;2.53;;
11127;SDS011;5618;51.028;5.234;2022-09-13T17:53:53;4.25;;;2.88;;
11127;SDS011;5618;51.028;5.234;2022-09-13T17:56:28;2.58;;;2.38;;
11127;SDS011;5618;51.028;5.234;2022-09-13T18:01:35;2.97;;;2.63;;
11127;SDS011;5618;51.028;5.234;2022-09-13T18:04:02;4.50;;;2.88;;
11127;SDS011;5618;51.028;5.234;2022-09-13T18:06:28;3.25;;;2.95;;
11127;SDS011;5618;51.028;5.234;2022-09-13T18:08:53;3.90;;;2.58;;
11127;SDS011;5618;51.028;5.234;2022-09-13T18:11:19;2.53;;;2.33;;
11127;SDS011;5618;51.028;5.234;2022-09-13T18:13:46;3.80;;;2.67;;
11127;SDS011;5618;51.028;5.234;2022-09-13T18:16:16;4.05;;;2.75;;
11127;SDS011;5618;51.028;5.234;2022-09-13T18:18:44;2.72;;;2.40;;
11127;SDS011;5618;51.028;5.234;2022-09-13T18:21:14;3.53;;;2.70;;
11127;SDS011;5618;51.028;5.234;2022-09-13T18:23:42;3.25;;;2.75;;
11127;SDS011;5618;51.028;5.234;2022-09-13T18:26:10;2.97;;;2.40;;
11127;SDS011;5618;51.028;5.234;2022-09-13T18:28:36;2.80;;;2.60;;
11127;SDS011;5618;51.028;5.234;2022-09-13T18:31:03;2.90;;;2.60;;
11127;SDS011;5618;51.028;5.234;2022-09-13T18:33:30;2.55;;;2.35;;
11127;SDS011;5618;51.028;5.234;2022-09-13T18:36:06;2.90;;;2.60;;
11127;SDS011;5618;51.028;5.234;2022-09-13T18:38:37;3.55;;;3.10;;
11127;SDS011;5618;51.028;5.234;2022-09-13T18:43:38;3.35;;;2.90;;
11127;SDS011;5618;51.028;5.234;2022-09-13T18:46:06;4.40;;;3.13;;
11127;SDS011;5618;51.028;5.234;2022-09-13T18:48:35;5.35;;;3.80;;
11127;SDS011;5618;51.028;5.234;2022-09-13T18:51:02;4.30;;;2.80;;
11127;SDS011;5618;51.028;5.234;2022-09-13T18:53:28;5.65;;;2.30;;
11127;SDS011;5618;51.028;5.234;2022-09-13T18:55:58;4.13;;;3.30;;
11127;SDS011;5618;51.028;5.234;2022-09-13T18:58:25;4.40;;;3.65;;
11127;SDS011;5618;51.028;5.234;2022-09-13T19:01:27;3.45;;;3.10;;
11127;SDS011;5618;51.028;5.234;2022-09-13T19:04:03;4.63;;;3.85;;
11127;SDS011;5618;51.028;5.234;2022-09-13T19:06:31;3.33;;;3.03;;
11127;SDS011;5618;51.028;5.234;2022-09-13T19:09:08;4.00;;;3.22;;
11127;SDS011;5618;51.028;5.234;2022-09-13T19:11:36;3.40;;;3.10;;
11127;SDS011;5618;51.028;5.234;2022-09-13T19:14:03;3.85;;;3.00;;